Time;durP1;ratioP1;P1;durP2;ratioP2;P2;SDS_P1;SDS_P2;PMS_P1;PMS_P2;Temp;Humidity;BMP_temperature;BMP_pressure;BME280_temperature;BME280_humidity;BME280_pressure;Samples;Min_cycle;Max_cycle;Signal;HPM_P1;HPM_P2
2023/01/29 00:03:04;;;;;;;106.53;39.20;;;;;;;-1.77;100.00;102056.25;8324904;28;20333;-58
2023/01/29 00:07:05;;;;;;;113.72;41.38;;;;;;;-1.70;100.00;102049.94;8320712;28;20084;-58
2023/01/29 00:11:06;;;;;;;110.38;42.08;;;;;;;-1.96;100.00;102047.72;8327096;28;20037;-58
2023/01/29 00:15:07;;;;;;;113.10;40.42;;;;;;;-1.84;100.00;102042.22;8293749;28;20503;-55
2023/01/29 00:19:07;;;;;;;111.47;39.97;;;;;;;-1.96;100.00;102034.47;8293706;28;20455;-58
2023/01/29 00:23:08;;;;;;;109.55;41.97;;;;;;;-1.90;100.00;102030.88;8293381;28;20049;-56
2023/01/29 00:27:08;;;;;;;115.18;41.95;;;;;;;-1.66;100.00;102031.31;8293290;28;20050;-58
2023/01/29 00:31:11;;;;;;;115.40;41.10;;;;;;;-1.58;100.00;102029.41;8315159;28;20030;-58
2023/01/29 00:35:12;;;;;;;118.40;44.17;;;;;;;-1.64;100.00;102032.16;8321678;28;20041;-56
2023/01/29 00:39:13;;;;;;;114.47;43.30;;;;;;;-1.57;100.00;102035.56;8321388;28;20049;-57
2023/01/29 00:47:34;;;;;;;104.72;40.40;;;;;;;-2.07;100.00;102012.59;8325153;28;20041;-55
2023/01/29 00:51:36;;;;;;;120.13;43.65;;;;;;;-2.15;100.00;102003.91;8325073;28;20037;-57
2023/01/29 00:55:36;;;;;;;121.20;43.08;;;;;;;-2.22;100.00;101996.94;8323898;28;20410;-57
2023/01/29 00:59:38;;;;;;;112.28;41.05;;;;;;;-2.15;100.00;101998.59;8322506;28;20095;-57
2023/01/29 01:03:41;;;;;;;119.55;42.92;;;;;;;-1.79;100.00;102003.28;8321531;28;20037;-57
2023/01/29 01:07:41;;;;;;;106.60;41.15;;;;;;;-2.21;100.00;101998.69;8316765;28;20089;-57
2023/01/29 01:11:41;;;;;;;110.43;39.88;;;;;;;-2.21;100.00;102014.59;8297038;28;20037;-58
2023/01/29 01:15:42;;;;;;;118.13;40.42;;;;;;;-2.00;100.00;101993.03;8324750;28;20112;-56
2023/01/29 01:19:43;;;;;;;107.88;40.42;;;;;;;-2.31;100.00;101992.66;8322943;28;20330;-56
2023/01/29 01:23:43;;;;;;;103.85;38.78;;;;;;;-2.27;100.00;101988.19;8324463;28;20037;-58
2023/01/29 01:27:44;;;;;;;106.72;40.38;;;;;;;-2.33;100.00;101993.59;8324853;28;20368;-58
2023/01/29 01:31:44;;;;;;;107.85;40.83;;;;;;;-2.17;100.00;101998.63;8322501;28;20033;-58
2023/01/29 01:35:45;;;;;;;108.45;38.67;;;;;;;-2.10;100.00;101994.09;8324527;28;20033;-58
2023/01/29 01:39:47;;;;;;;109.55;41.03;;;;;;;-2.21;100.00;102009.28;8324425;28;20521;-58
2023/01/29 01:43:51;;;;;;;110.45;41.40;;;;;;;-2.43;100.00;102018.47;8315300;28;20091;-54
2023/01/29 01:48:11;;;;;;;106.93;39.88;;;;;;;-2.56;100.00;102011.59;8297082;28;20037;-57
2023/01/29 01:52:15;;;;;;;107.90;40.75;;;;;;;-2.46;100.00;102002.63;8289963;28;20484;-58
2023/01/29 01:56:23;;;;;;;107.22;40.03;;;;;;;-2.34;100.00;101997.16;8309526;28;20033;-57
2023/01/29 02:00:25;;;;;;;120.90;43.40;;;;;;;-2.35;100.00;101990.09;8322736;28;20048;-55
2023/01/29 02:09:39;;;;;;;128.68;46.30;;;;;;;-2.16;100.00;101976.50;8317434;28;20037;-57
2023/01/29 02:13:28;;;;;;;114.38;43.17;;;;;;;-2.17;100.00;101980.06;8321936;28;20084;-58
2023/01/29 02:17:30;;;;;;;119.63;42.13;;;;;;;-2.09;100.00;101987.91;8320365;28;20673;-57
2023/01/29 02:22:10;;;;;;;117.72;43.03;;;;;;;-2.03;100.00;101993.09;8321580;28;20053;-56
2023/01/29 02:26:51;;;;;;;114.32;41.85;;;;;;;-2.47;100.00;101990.28;8320611;28;20392;-58
2023/01/29 02:31:03;;;;;;;123.75;43.65;;;;;;;-2.40;100.00;101999.88;8318675;28;20529;-58
2023/01/29 02:35:46;;;;;;;124.07;43.90;;;;;;;-2.51;100.00;101994.75;8316483;28;20037;-57
2023/01/29 02:39:46;;;;;;;113.05;42.20;;;;;;;-2.44;100.00;101999.03;8321664;28;20467;-58
2023/01/29 02:44:13;;;;;;;116.38;42.65;;;;;;;-2.46;100.00;101992.03;8320101;28;20422;-57
2023/01/29 02:48:19;;;;;;;114.93;43.00;;;;;;;-2.40;100.00;102002.53;8321242;28;20153;-59
2023/01/29 02:52:31;;;;;;;128.65;48.13;;;;;;;-2.35;100.00;102008.66;8322632;28;20041;-58
2023/01/29 02:56:50;;;;;;;119.90;44.00;;;;;;;-2.30;100.00;102014.72;8321361;28;20041;-58
2023/01/29 03:00:55;;;;;;;120.75;44.78;;;;;;;-2.26;100.00;102022.59;8318202;28;20045;-55
2023/01/29 03:05:00;;;;;;;115.65;43.83;;;;;;;-2.30;100.00;102025.31;8322247;28;20045;-58
2023/01/29 03:09:08;;;;;;;126.05;45.22;;;;;;;-2.41;100.00;102049.31;8322762;28;20099;-57
2023/01/29 03:13:18;;;;;;;112.43;44.17;;;;;;;-2.16;100.00;102052.47;8323821;28;20124;-58
2023/01/29 03:17:25;;;;;;;126.03;46.15;;;;;;;-2.71;100.00;102055.00;8327517;28;20033;-57
2023/01/29 03:22:04;;;;;;;119.57;42.47;;;;;;;-2.81;100.00;102042.81;8323406;28;20487;-58
2023/01/29 03:35:02;;;;;;;110.00;41.67;;;;;;;-2.85;100.00;102009.34;8329730;28;20505;-58
2023/01/29 03:39:05;;;;;;;112.43;41.63;;;;;;;-2.93;100.00;101995.34;8330392;28;20033;-55
2023/01/29 03:43:17;;;;;;;115.82;43.35;;;;;;;-2.90;100.00;101995.31;8329683;28;20044;-58
2023/01/29 03:47:29;;;;;;;112.10;40.55;;;;;;;-2.96;100.00;101994.53;8328364;28;20136;-54
2023/01/29 03:56:26;;;;;;;108.28;40.85;;;;;;;-2.77;100.00;102001.31;8318588;27;20476;-52
2023/01/29 04:00:33;;;;;;;109.03;40.55;;;;;;;-2.65;100.00;102012.59;8304889;28;20038;-49
2023/01/29 04:04:42;;;;;;;113.18;41.10;;;;;;;-2.54;100.00;102015.97;8288634;28;20048;-52
2023/01/29 04:08:54;;;;;;;98.95;38.33;;;;;;;-2.95;100.00;102007.72;8286536;28;20045;-53
2023/01/29 04:13:07;;;;;;;107.75;39.95;;;;;;;-2.79;100.00;102008.38;8287219;28;20045;-53
2023/01/29 04:17:14;;;;;;;108.40;41.30;;;;;;;-2.70;100.00;102008.25;8286097;28;20392;-52
2023/01/29 04:21:21;;;;;;;107.43;38.45;;;;;;;-2.65;100.00;101996.72;8289748;28;20037;-52
2023/01/29 04:25:27;;;;;;;100.63;39.65;;;;;;;-2.97;99.58;101998.03;8291768;28;20033;-52
2023/01/29 04:29:56;;;;;;;99.15;38.25;;;;;;;-2.89;100.00;101990.91;8288269;28;20435;-53
2023/01/29 04:34:26;;;;;;;102.90;37.47;;;;;;;-2.83;100.00;101975.81;8292582;28;20436;-51
2023/01/29 04:38:44;;;;;;;94.40;37.95;;;;;;;-2.94;100.00;101971.56;8302013;28;20426;-52
2023/01/29 04:42:58;;;;;;;108.13;37.88;;;;;;;-2.91;100.00;101971.50;8302855;28;20057;-53
2023/01/29 04:52:08;;;;;;;101.70;36.83;;;;;;;-2.98;100.00;101964.56;8422780;27;20472;-51
2023/01/29 04:56:25;;;;;;;104.82;37.22;;;;;;;-2.62;100.00;101964.06;8420525;28;20071;-54
2023/01/29 05:00:31;;;;;;;98.50;37.60;;;;;;;-2.95;100.00;101951.31;8401225;28;20050;-52
2023/01/29 05:04:33;;;;;;;97.25;38.53;;;;;;;-2.91;100.00;101960.94;8396762;28;20048;-49
2023/01/29 05:08:36;;;;;;;110.50;39.35;;;;;;;-2.98;100.00;101948.69;8387443;28;20041;-55
2023/01/29 05:12:38;;;;;;;111.70;39.47;;;;;;;-2.82;100.00;101939.63;8381485;28;20512;-52
2023/01/29 05:16:44;;;;;;;106.82;38.72;;;;;;;-2.77;100.00;101943.97;8418723;28;20036;-52
2023/01/29 05:20:46;;;;;;;106.78;39.60;;;;;;;-2.73;100.00;101939.50;8419107;28;20131;-50
2023/01/29 05:24:48;;;;;;;106.25;38.65;;;;;;;-2.52;100.00;101952.41;8419716;28;20033;-53
2023/01/29 05:28:48;;;;;;;110.57;40.85;;;;;;;-2.53;100.00;101963.91;8419987;28;20090;-50
2023/01/29 05:32:49;;;;;;;98.80;35.80;;;;;;;-3.03;100.00;101958.44;8418612;28;20568;-53
2023/01/29 05:36:49;;;;;;;111.18;39.00;;;;;;;-2.87;100.00;101952.09;8419423;28;20040;-49
2023/01/29 05:40:50;;;;;;;103.90;37.28;;;;;;;-2.86;100.00;101935.31;8419147;28;20040;-52
2023/01/29 05:44:50;;;;;;;109.57;40.50;;;;;;;-2.84;100.00;101942.31;8400738;28;20048;-53
2023/01/29 05:48:52;;;;;;;106.05;37.42;;;;;;;-2.81;100.00;101946.69;8419324;28;20044;-53
2023/01/29 05:52:56;;;;;;;107.45;39.50;;;;;;;-2.68;100.00;101948.25;8414229;28;20036;-54
2023/01/29 05:56:57;;;;;;;111.47;40.15;;;;;;;-2.85;100.00;101944.97;8388184;28;20562;-51
2023/01/29 06:00:57;;;;;;;110.65;38.30;;;;;;;-2.84;100.00;101946.75;8394745;28;20037;-51
2023/01/29 06:04:58;;;;;;;107.45;37.78;;;;;;;-2.75;100.00;101941.28;8396554;28;20132;-52
2023/01/29 06:08:58;;;;;;;109.38;37.58;;;;;;;-2.77;100.00;101932.53;8396536;28;20041;-53
2023/01/29 06:12:58;;;;;;;101.30;36.83;;;;;;;-2.71;100.00;101932.44;8395895;28;20080;-53
2023/01/29 06:16:59;;;;;;;110.03;39.05;;;;;;;-2.73;100.00;101937.75;8393238;28;20051;-51
2023/01/29 06:21:01;;;;;;;108.30;37.33;;;;;;;-2.75;100.00;101943.94;8362415;28;20137;-52
2023/01/29 06:25:02;;;;;;;108.57;38.80;;;;;;;-2.77;100.00;101938.66;8361902;28;20098;-51
2023/01/29 06:29:03;;;;;;;105.18;37.05;;;;;;;-2.86;100.00;101937.94;8362743;28;20053;-49
2023/01/29 06:33:03;;;;;;;106.30;37.78;;;;;;;-2.73;100.00;101950.09;8362272;28;20068;-53
2023/01/29 06:37:03;;;;;;;102.97;38.72;;;;;;;-2.78;100.00;101942.22;8362106;28;20128;-51
2023/01/29 06:41:10;;;;;;;102.28;37.03;;;;;;;-2.66;100.00;101963.22;8344265;28;20090;-52
2023/01/29 06:45:11;;;;;;;108.60;39.95;;;;;;;-2.72;100.00;101971.25;8394388;28;20040;-52
2023/01/29 06:49:11;;;;;;;110.93;38.05;;;;;;;-2.77;100.00;101988.09;8393603;28;20044;-52
2023/01/29 06:53:12;;;;;;;106.85;38.63;;;;;;;-2.66;100.00;101988.78;8394399;28;20110;-53
2023/01/29 06:57:12;;;;;;;107.70;38.38;;;;;;;-2.65;100.00;102001.16;8394108;28;20119;-55
2023/01/29 07:01:12;;;;;;;105.57;37.83;;;;;;;-2.29;100.00;102000.56;8391647;28;20119;-53
2023/01/29 07:05:13;;;;;;;98.57;36.67;;;;;;;-2.66;100.00;102007.31;8394532;28;20048;-50
2023/01/29 07:09:13;;;;;;;108.78;36.03;;;;;;;-2.73;100.00;101992.44;8393679;28;20274;-53
2023/01/29 07:13:14;;;;;;;99.57;36.40;;;;;;;-2.70;100.00;101990.63;8393118;28;20131;-51
2023/01/29 07:17:14;;;;;;;108.90;36.53;;;;;;;-2.53;100.00;101987.75;8393983;28;20366;-52
2023/01/29 07:21:15;;;;;;;101.60;36.13;;;;;;;-2.37;100.00;101986.59;8379279;28;20512;-53
2023/01/29 07:25:16;;;;;;;109.93;36.70;;;;;;;-2.26;100.00;101974.03;8377617;28;20486;-53
2023/01/29 07:29:16;;;;;;;107.90;39.03;;;;;;;-2.10;100.00;101965.81;8363573;28;20037;-52
2023/01/29 07:33:16;;;;;;;117.43;42.00;;;;;;;-1.95;100.00;101975.31;8384681;28;20052;-53
2023/01/29 07:37:17;;;;;;;109.65;39.55;;;;;;;-1.81;100.00;101983.88;8380835;28;20128;-51
2023/01/29 07:41:17;;;;;;;112.97;40.42;;;;;;;-1.63;100.00;101983.53;8376118;28;20037;-53
2023/01/29 07:45:19;;;;;;;106.60;39.67;;;;;;;-1.49;100.00;101975.31;8376881;28;20087;-52
2023/01/29 07:49:20;;;;;;;114.68;42.47;;;;;;;-1.47;100.00;101979.69;8376026;28;20044;-52
2023/01/29 07:53:20;;;;;;;108.50;37.42;;;;;;;-1.35;100.00;101976.78;8374470;28;20047;-52
2023/01/29 07:57:21;;;;;;;106.38;36.53;;;;;;;-1.29;100.00;101978.44;8363927;28;20502;-51
2023/01/29 08:01:21;;;;;;;107.43;35.35;;;;;;;-1.22;100.00;101980.94;8374056;28;20059;-52
2023/01/29 08:05:22;;;;;;;96.57;38.47;;;;;;;-1.16;100.00;101970.19;8374879;28;20036;-52
2023/01/29 08:09:22;;;;;;;104.43;37.05;;;;;;;-1.07;100.00;101970.00;8373673;28;20037;-51
2023/01/29 08:13:23;;;;;;;100.57;36.67;;;;;;;-0.97;100.00;101976.00;8355468;28;20040;-52
2023/01/29 08:17:23;;;;;;;116.55;41.08;;;;;;;-0.93;100.00;101983.88;8376161;28;20059;-51
2023/01/29 08:21:24;;;;;;;110.18;39.33;;;;;;;-0.89;100.00;101980.25;8373162;28;20040;-51
2023/01/29 08:25:24;;;;;;;97.93;35.15;;;;;;;-0.87;100.00;101962.50;8368757;28;20122;-53
2023/01/29 08:29:25;;;;;;;89.10;33.45;;;;;;;-0.78;100.00;101961.44;8335203;28;20041;-53
2023/01/29 08:33:27;;;;;;;101.60;36.65;;;;;;;-0.73;100.00;101965.72;8337361;28;20548;-54
2023/01/29 08:37:28;;;;;;;99.88;36.75;;;;;;;-0.67;100.00;101981.50;8341820;28;20040;-53
2023/01/29 08:41:28;;;;;;;98.82;35.03;;;;;;;-0.60;100.00;101983.16;8339954;28;20129;-52
2023/01/29 08:45:30;;;;;;;105.40;36.15;;;;;;;-0.56;100.00;101984.81;8353575;28;20045;-52
2023/01/29 08:49:31;;;;;;;95.38;34.08;;;;;;;-0.45;100.00;101982.75;8351003;28;20051;-52
2023/01/29 08:53:32;;;;;;;105.38;37.72;;;;;;;-0.41;100.00;101973.84;8351725;28;20502;-49
2023/01/29 08:57:32;;;;;;;96.88;33.38;;;;;;;-0.31;100.00;101964.72;8329417;28;20041;-52
2023/01/29 09:01:32;;;;;;;98.50;37.35;;;;;;;-0.25;100.00;101964.56;8327702;28;20419;-53
2023/01/29 09:05:34;;;;;;;96.93;35.13;;;;;;;-0.13;100.00;101964.28;8325280;28;20037;-52
2023/01/29 09:09:34;;;;;;;104.10;35.60;;;;;;;-0.06;100.00;101955.22;8328129;28;20071;-52
2023/01/29 09:13:37;;;;;;;96.07;34.78;;;;;;;-0.02;99.55;101956.91;8332845;28;20491;-52
2023/01/29 09:17:38;;;;;;;93.77;34.10;;;;;;;0.07;100.00;101965.56;8322939;28;20086;-50
2023/01/29 09:21:38;;;;;;;102.35;34.97;;;;;;;0.09;100.00;101959.28;8326883;28;20090;-53
2023/01/29 09:25:41;;;;;;;91.15;35.15;;;;;;;0.21;100.00;101963.41;8316770;28;20029;-53
2023/01/29 09:29:42;;;;;;;97.63;33.92;;;;;;;0.28;100.00;101955.25;8323716;28;20485;-54
2023/01/29 09:33:42;;;;;;;98.63;33.65;;;;;;;0.36;99.97;101947.06;8324560;28;20056;-54
2023/01/29 09:37:46;;;;;;;92.05;34.72;;;;;;;0.45;99.07;101941.50;8338924;28;20434;-53
2023/01/29 09:41:57;;;;;;;95.70;34.72;;;;;;;0.55;98.95;101941.16;8360810;28;20064;-52
2023/01/29 09:46:04;;;;;;;98.20;33.67;;;;;;;0.57;98.73;101931.34;8336540;28;20037;-51
2023/01/29 09:50:11;;;;;;;89.00;31.77;;;;;;;0.69;99.39;101932.78;8332713;28;20041;-54
2023/01/29 09:54:21;;;;;;;88.70;31.83;;;;;;;0.77;98.49;101922.81;8335087;28;20041;-50
2023/01/29 09:58:34;;;;;;;86.32;32.88;;;;;;;0.91;98.70;101924.13;8345404;28;20048;-52
2023/01/29 10:03:14;;;;;;;87.10;31.45;;;;;;;1.06;98.55;101922.78;8327164;28;20037;-49
2023/01/29 10:11:44;;;;;;;93.88;33.47;;;;;;;1.41;97.00;101899.47;8314834;28;20510;-51
2023/01/29 10:16:17;;;;;;;93.75;34.40;;;;;;;1.55;95.57;101883.91;8291997;28;20053;-54
2023/01/29 10:20:36;;;;;;;84.18;31.38;;;;;;;1.95;93.75;101880.75;8224326;28;20035;-54
2023/01/29 10:24:45;;;;;;;81.75;30.75;;;;;;;2.11;91.85;101879.31;8275017;28;20609;-52
2023/01/29 10:28:49;;;;;;;80.88;31.40;;;;;;;2.37;89.92;101881.91;8271346;28;20470;-53
2023/01/29 10:32:51;;;;;;;85.97;31.63;;;;;;;2.51;90.03;101874.28;8258628;28;20500;-53
2023/01/29 10:36:53;;;;;;;82.93;30.85;;;;;;;2.60;88.93;101871.28;8232407;28;20598;-53
2023/01/29 10:41:06;;;;;;;80.85;29.85;;;;;;;2.79;89.48;101879.44;8218669;28;20049;-53
2023/01/29 10:45:33;;;;;;;83.97;31.88;;;;;;;2.65;87.82;101882.63;8271974;28;20038;-52
2023/01/29 10:50:13;;;;;;;94.03;32.50;;;;;;;2.62;89.19;101882.75;8273190;28;20572;-53
2023/01/29 10:54:43;;;;;;;85.88;30.98;;;;;;;2.64;89.35;101872.91;8278471;28;20521;-53
2023/01/29 10:58:50;;;;;;;78.80;27.45;;;;;;;2.57;88.46;101860.72;8277252;28;20184;-54
2023/01/29 11:02:51;;;;;;;79.40;30.60;;;;;;;2.55;88.48;101857.22;8269330;28;20065;-52
2023/01/29 11:06:51;;;;;;;80.18;30.25;;;;;;;2.54;88.17;101857.28;8243162;28;20397;-52
2023/01/29 11:11:16;;;;;;;79.28;30.42;;;;;;;2.53;88.80;101851.06;8247602;28;20143;-53
2023/01/29 11:15:23;;;;;;;76.13;30.58;;;;;;;2.57;89.88;101836.69;8263235;28;20050;-51
2023/01/29 11:19:41;;;;;;;80.15;31.60;;;;;;;2.51;89.94;101842.25;8276932;28;20555;-55
2023/01/29 11:23:41;;;;;;;77.60;30.65;;;;;;;2.50;90.66;101834.31;8209290;28;20062;-51
2023/01/29 11:27:48;;;;;;;84.68;31.55;;;;;;;2.53;90.27;101824.38;8232278;28;20047;-57
2023/01/29 11:31:49;;;;;;;80.10;29.85;;;;;;;2.57;90.85;101820.69;8240357;28;20152;-55
2023/01/29 11:35:51;;;;;;;85.68;32.08;;;;;;;2.53;90.23;101812.84;8249241;28;20121;-56
2023/01/29 11:39:52;;;;;;;78.15;30.52;;;;;;;2.59;90.14;101797.44;8248882;28;20058;-55
2023/01/29 11:43:52;;;;;;;78.68;29.65;;;;;;;2.75;90.94;101803.94;8260524;28;20069;-55
2023/01/29 11:47:55;;;;;;;72.38;28.70;;;;;;;2.74;91.15;101796.84;8253930;28;20205;-56
2023/01/29 11:52:00;;;;;;;82.22;30.00;;;;;;;2.69;90.23;101788.16;8260711;28;20064;-57
2023/01/29 11:56:12;;;;;;;76.68;29.65;;;;;;;2.80;90.84;101791.28;8248682;28;20126;-56
2023/01/29 12:00:25;;;;;;;73.50;28.98;;;;;;;2.88;90.52;101778.50;8249021;28;20042;-54
2023/01/29 12:04:25;;;;;;;84.30;30.73;;;;;;;2.98;90.10;101766.50;8239777;28;20047;-57
2023/01/29 12:08:32;;;;;;;74.57;28.73;;;;;;;3.11;88.97;101765.06;8225278;28;20042;-57
2023/01/29 12:12:41;;;;;;;74.20;29.17;;;;;;;3.19;89.64;101749.59;8246762;28;20046;-54
2023/01/29 12:17:23;;;;;;;79.78;32.63;;;;;;;3.23;88.60;101747.69;8244768;28;20500;-56
2023/01/29 12:21:37;;;;;;;78.65;29.80;;;;;;;3.45;88.60;101738.66;8241714;28;20129;-54
2023/01/29 12:25:49;;;;;;;70.32;26.17;;;;;;;3.48;87.12;101730.50;8228350;28;20097;-55
2023/01/29 12:30:14;;;;;;;69.97;27.45;;;;;;;3.38;86.49;101709.56;8245618;28;20050;-56
2023/01/29 12:34:25;;;;;;;68.65;26.45;;;;;;;3.41;87.58;101693.41;8260467;28;20049;-55
2023/01/29 12:38:25;;;;;;;71.15;27.65;;;;;;;3.54;87.86;101668.75;8249272;28;20392;-55
2023/01/29 12:42:26;;;;;;;69.25;27.98;;;;;;;3.54;87.29;101670.56;8240023;28;20042;-57
2023/01/29 12:46:30;;;;;;;66.40;27.40;;;;;;;3.51;87.77;101668.03;8224570;28;20332;-57
2023/01/29 12:50:35;;;;;;;71.60;28.58;;;;;;;3.57;88.32;101651.72;8232174;28;20053;-55
2023/01/29 12:54:41;;;;;;;70.85;27.42;;;;;;;3.74;88.67;101641.13;8225712;28;20048;-57
2023/01/29 12:58:47;;;;;;;69.88;25.88;;;;;;;3.72;88.21;101630.50;8240455;28;20047;-56
2023/01/29 13:03:27;;;;;;;67.75;26.67;;;;;;;3.82;89.13;101631.78;8239628;28;20444;-57
2023/01/29 13:07:33;;;;;;;69.10;26.48;;;;;;;3.85;88.54;101615.59;8196958;28;20043;-57
2023/01/29 13:11:44;;;;;;;70.20;26.85;;;;;;;3.94;88.51;101604.47;8197770;28;20037;-56
2023/01/29 13:15:46;;;;;;;69.70;27.13;;;;;;;3.96;87.66;101604.41;8192462;28;20440;-57
2023/01/29 13:19:50;;;;;;;64.68;26.08;;;;;;;4.15;88.54;101596.38;8207073;28;20034;-58
2023/01/29 13:23:55;;;;;;;67.35;26.70;;;;;;;4.27;86.89;101590.44;8240862;28;20030;-56
2023/01/29 13:27:56;;;;;;;66.82;24.42;;;;;;;4.38;86.89;101593.44;8195005;28;20043;-56
2023/01/29 13:31:59;;;;;;;46.03;18.73;;;;;;;4.47;84.71;101575.13;8223523;28;20122;-55
2023/01/29 13:36:00;;;;;;;42.00;17.35;;;;;;;4.62;85.20;101565.44;8239389;28;20129;-55
2023/01/29 13:40:02;;;;;;;28.27;9.18;;;;;;;4.62;81.34;101554.72;8265861;28;20048;-56
2023/01/29 13:44:16;;;;;;;17.83;6.93;;;;;;;4.69;81.29;101556.16;8260956;28;20085;-53
2023/01/29 13:48:26;;;;;;;14.73;6.40;;;;;;;4.68;80.30;101549.06;8253098;28;20412;-57
2023/01/29 13:52:35;;;;;;;11.30;5.18;;;;;;;4.71;79.93;101543.56;8203776;28;20043;-55
2023/01/29 13:56:48;;;;;;;9.55;5.22;;;;;;;4.67;79.69;101531.28;8228060;28;20030;-55
2023/01/29 14:00:49;;;;;;;13.60;6.30;;;;;;;4.68;79.53;101549.06;8246867;28;20543;-57
2023/01/29 14:04:51;;;;;;;12.43;6.32;;;;;;;4.60;80.37;101538.75;8244627;28;20064;-55
2023/01/29 14:08:51;;;;;;;12.27;5.75;;;;;;;4.57;79.98;101546.09;8251400;28;20705;-55
2023/01/29 14:13:17;;;;;;;14.02;8.93;;;;;;;4.52;79.89;101561.50;8245963;28;20673;-55
2023/01/29 14:17:19;;;;;;;15.32;6.25;;;;;;;4.48;80.26;101552.75;8190478;28;20098;-54
2023/01/29 14:21:26;;;;;;;13.48;5.72;;;;;;;4.41;80.56;101558.47;8185601;28;20130;-55
2023/01/29 14:25:30;;;;;;;11.63;5.88;;;;;;;4.35;81.00;101558.78;8247477;28;20509;-55
2023/01/29 14:29:40;;;;;;;16.17;7.30;;;;;;;4.33;81.12;101555.34;8245925;28;20472;-53
2023/01/29 14:33:40;;;;;;;12.90;7.13;;;;;;;4.30;81.75;101566.19;8251425;28;20061;-53
2023/01/29 14:37:46;;;;;;;16.00;7.50;;;;;;;4.28;81.71;101554.69;8251476;28;20046;-54
2023/01/29 14:41:49;;;;;;;14.93;6.82;;;;;;;4.23;82.38;101559.38;8255758;28;20041;-53
2023/01/29 14:45:50;;;;;;;14.77;7.13;;;;;;;4.23;81.93;101562.06;8253031;28;20038;-57
2023/01/29 14:49:53;;;;;;;15.85;7.35;;;;;;;4.18;82.44;101548.06;8250359;28;20050;-54
2023/01/29 14:54:01;;;;;;;14.75;7.32;;;;;;;4.17;82.21;101551.69;8235136;28;20043;-56
2023/01/29 14:58:02;;;;;;;19.30;7.65;;;;;;;4.12;82.92;101559.06;8237887;28;20539;-56
2023/01/29 15:02:15;;;;;;;19.05;7.68;;;;;;;4.08;82.71;101561.88;8254787;28;20074;-57
2023/01/29 15:06:23;;;;;;;18.48;8.30;;;;;;;4.01;83.57;101557.78;8243082;28;20049;-55
2023/01/29 15:14:59;;;;;;;20.35;9.90;;;;;;;3.95;84.19;101558.09;8314900;27;20481;-52
2023/01/29 15:19:24;;;;;;;23.85;10.82;;;;;;;3.95;84.78;101552.72;8299054;28;20207;-54
2023/01/29 15:27:41;;;;;;;63.55;23.55;;;;;;;3.90;85.48;101560.09;8371513;27;20464;-53
2023/01/29 15:31:43;;;;;;;75.85;30.88;;;;;;;3.89;85.90;101563.72;8393956;28;20038;-53
2023/01/29 15:35:45;;;;;;;32.10;16.20;;;;;;;3.87;86.23;101560.25;8363585;28;20124;-53
2023/01/29 15:39:47;;;;;;;20.08;9.73;;;;;;;3.85;87.04;101555.91;8363215;28;20409;-53
2023/01/29 15:43:55;;;;;;;26.10;11.15;;;;;;;3.81;87.03;101555.19;8366446;28;20040;-51
2023/01/29 15:48:01;;;;;;;25.60;11.70;;;;;;;3.77;87.57;101552.72;8369640;28;20295;-53
2023/01/29 15:52:07;;;;;;;27.48;12.07;;;;;;;3.74;87.63;101553.75;8368691;28;20128;-51
2023/01/29 15:56:10;;;;;;;26.52;11.85;;;;;;;3.72;87.44;101544.06;8379658;28;20093;-51
2023/01/29 16:00:21;;;;;;;23.13;11.95;;;;;;;3.68;88.49;101537.13;8362089;28;20033;-53
2023/01/29 16:04:27;;;;;;;26.17;12.57;;;;;;;3.66;88.79;101534.50;8381379;28;20051;-51
2023/01/29 16:08:28;;;;;;;29.17;12.00;;;;;;;3.70;87.01;101530.78;8369319;28;20044;-54
2023/01/29 16:12:31;;;;;;;28.55;12.57;;;;;;;3.71;87.28;101539.66;8378855;28;20035;-53
2023/01/29 16:16:31;;;;;;;25.77;11.82;;;;;;;3.73;86.19;101541.28;8378910;28;20491;-51
2023/01/29 16:20:40;;;;;;;26.98;13.10;;;;;;;3.71;85.73;101527.16;8370675;28;20208;-53
2023/01/29 16:24:40;;;;;;;27.67;12.98;;;;;;;3.71;85.91;101536.97;8378691;28;20045;-57
2023/01/29 16:28:43;;;;;;;34.15;13.40;;;;;;;3.69;85.87;101539.72;8370758;28;20106;-56
2023/01/29 16:32:44;;;;;;;37.47;14.38;;;;;;;3.72;85.13;101534.22;8375978;28;20037;-55
2023/01/29 16:36:47;;;;;;;29.10;14.13;;;;;;;3.69;85.49;101536.19;8355227;28;20083;-55
2023/01/29 16:41:13;;;;;;;29.38;14.18;;;;;;;3.70;85.39;101537.91;8354763;28;20080;-57
2023/01/29 16:45:28;;;;;;;36.13;19.58;;;;;;;3.68;85.37;101524.63;8354042;28;20522;-57
2023/01/29 16:54:17;;;;;;;39.83;19.08;;;;;;;3.66;85.32;101507.78;8337089;28;20437;-55
2023/01/29 16:58:20;;;;;;;29.17;14.05;;;;;;;3.59;85.50;101495.66;8386588;28;20187;-53
2023/01/29 17:02:26;;;;;;;38.00;15.63;;;;;;;3.61;85.17;101496.44;8357065;28;20029;-55
2023/01/29 17:06:27;;;;;;;29.63;15.68;;;;;;;3.61;85.38;101493.78;8314675;28;20486;-56
2023/01/29 17:10:29;;;;;;;36.50;16.55;;;;;;;3.60;84.80;101486.69;8354661;28;20476;-57
2023/01/29 17:14:32;;;;;;;38.67;16.75;;;;;;;3.59;85.30;101498.31;8332374;28;20541;-57
2023/01/29 17:18:32;;;;;;;33.63;15.98;;;;;;;3.59;85.44;101495.66;8326063;28;20650;-56
2023/01/29 17:22:32;;;;;;;34.17;16.52;;;;;;;3.60;85.64;101494.69;8316759;28;20135;-58
2023/01/29 17:26:33;;;;;;;37.65;16.75;;;;;;;3.54;86.36;101484.28;8320341;28;20029;-55
2023/01/29 17:30:36;;;;;;;37.95;16.48;;;;;;;3.50;86.97;101492.53;8341080;28;20045;-54
2023/01/29 17:34:36;;;;;;;32.05;14.32;;;;;;;3.49;86.82;101486.34;8352884;28;20037;-55
2023/01/29 17:38:37;;;;;;;35.50;17.15;;;;;;;3.52;86.48;101472.81;8355837;28;20129;-55
2023/01/29 17:42:39;;;;;;;36.40;16.95;;;;;;;3.54;86.44;101476.28;8360205;28;20047;-56
2023/01/29 17:46:39;;;;;;;32.17;15.68;;;;;;;3.52;86.51;101472.81;8349670;28;20417;-54
2023/01/29 17:50:42;;;;;;;33.00;15.93;;;;;;;3.50;86.45;101464.00;8342954;28;20223;-57
2023/01/29 17:54:43;;;;;;;32.75;17.20;;;;;;;3.50;86.25;101473.81;8354715;28;20048;-56
2023/01/29 17:58:43;;;;;;;35.65;18.10;;;;;;;3.50;86.18;101458.66;8353592;28;20033;-55
2023/01/29 18:02:44;;;;;;;35.70;16.77;;;;;;;3.51;86.61;101462.22;8356320;28;20061;-56
2023/01/29 18:06:48;;;;;;;38.65;17.80;;;;;;;3.46;87.47;101457.06;8336547;28;20045;-57
2023/01/29 18:10:48;;;;;;;34.45;17.88;;;;;;;3.46;87.28;101450.84;8328616;28;20409;-54
2023/01/29 18:14:49;;;;;;;39.42;18.80;;;;;;;3.43;87.39;101446.53;8344928;28;20123;-56
2023/01/29 18:18:51;;;;;;;35.90;18.35;;;;;;;3.42;87.76;101444.78;8321458;28;20041;-56
2023/01/29 18:22:52;;;;;;;38.40;18.65;;;;;;;3.45;87.46;101435.78;8322140;28;20087;-55
2023/01/29 18:26:52;;;;;;;39.75;18.10;;;;;;;3.45;87.59;101441.97;8322319;28;20042;-57
2023/01/29 18:30:52;;;;;;;39.83;18.98;;;;;;;3.43;88.02;101430.50;8336529;28;20211;-56
2023/01/29 18:34:53;;;;;;;43.55;20.13;;;;;;;3.42;88.54;101418.06;8303272;28;20473;-54
2023/01/29 18:38:55;;;;;;;40.55;18.58;;;;;;;3.41;88.77;101416.34;8334110;28;20072;-56
2023/01/29 18:42:58;;;;;;;46.42;19.63;;;;;;;3.39;89.13;101402.16;8325286;28;20041;-56
2023/01/29 18:46:59;;;;;;;36.78;17.50;;;;;;;3.41;89.33;101405.63;8327461;28;20041;-56
2023/01/29 18:50:59;;;;;;;41.60;18.27;;;;;;;3.39;90.00;101396.81;8336954;28;20107;-57
2023/01/29 18:55:00;;;;;;;46.38;20.65;;;;;;;3.39;89.93;101390.63;8296380;28;20045;-53
2023/01/29 18:59:00;;;;;;;46.63;21.58;;;;;;;3.42;89.90;101385.97;8328194;28;20045;-57
2023/01/29 19:03:01;;;;;;;44.83;20.55;;;;;;;3.41;90.46;101384.25;8342670;28;20969;-56
2023/01/29 19:07:03;;;;;;;48.65;21.73;;;;;;;3.40;90.83;101382.53;8341863;28;20049;-57
2023/01/29 19:11:06;;;;;;;42.20;19.58;;;;;;;3.43;90.85;101361.00;8325599;28;20382;-57
2023/01/29 19:15:09;;;;;;;32.90;17.00;;;;;;;3.42;91.11;101340.53;8316319;28;20041;-55
2023/01/29 19:19:10;;;;;;;35.42;17.65;;;;;;;3.38;91.78;101346.13;8321916;28;20037;-56